sensor_id;sensor_type;location;lat;lon;timestamp;temperature;humidity
680;DHT22;322;48.846;9.230;2022-10-29T00:02:01;12.80;99.90
680;DHT22;322;48.846;9.230;2022-10-29T00:04:28;12.80;99.90
680;DHT22;322;48.846;9.230;2022-10-29T00:06:57;12.80;99.90
680;DHT22;322;48.846;9.230;2022-10-29T00:09:23;12.70;99.90
680;DHT22;322;48.846;9.230;2022-10-29T00:11:50;12.70;99.90
680;DHT22;322;48.846;9.230;2022-10-29T00:14:17;12.70;99.90
680;DHT22;322;48.846;9.230;2022-10-29T00:16:43;12.70;99.90
680;DHT22;322;48.846;9.230;2022-10-29T00:19:10;12.70;99.90
680;DHT22;322;48.846;9.230;2022-10-29T00:21:37;12.60;99.90
680;DHT22;322;48.846;9.230;2022-10-29T00:24:08;12.60;99.90
680;DHT22;322;48.846;9.230;2022-10-29T00:26:35;12.60;99.90
680;DHT22;322;48.846;9.230;2022-10-29T00:29:02;12.60;99.90
680;DHT22;322;48.846;9.230;2022-10-29T00:31:28;12.60;99.90
680;DHT22;322;48.846;9.230;2022-10-29T00:33:55;12.60;99.90
680;DHT22;322;48.846;9.230;2022-10-29T00:36:25;12.60;99.90
680;DHT22;322;48.846;9.230;2022-10-29T00:38:53;12.50;99.90
680;DHT22;322;48.846;9.230;2022-10-29T00:41:25;12.50;99.90
680;DHT22;322;48.846;9.230;2022-10-29T00:44:23;12.50;99.90
680;DHT22;322;48.846;9.230;2022-10-29T00:46:52;12.50;99.90
680;DHT22;322;48.846;9.230;2022-10-29T00:49:21;12.60;99.90
680;DHT22;322;48.846;9.230;2022-10-29T00:51:49;12.60;99.90
680;DHT22;322;48.846;9.230;2022-10-29T00:54:17;12.60;99.90
680;DHT22;322;48.846;9.230;2022-10-29T00:56:49;12.60;99.90
680;DHT22;322;48.846;9.230;2022-10-29T00:59:17;12.60;99.90
680;DHT22;322;48.846;9.230;2022-10-29T01:01:45;12.50;99.90
680;DHT22;322;48.846;9.230;2022-10-29T01:04:14;12.50;99.90
680;DHT22;322;48.846;9.230;2022-10-29T01:06:42;12.50;99.90
680;DHT22;322;48.846;9.230;2022-10-29T01:09:09;12.40;99.90
680;DHT22;322;48.846;9.230;2022-10-29T01:11:43;12.40;99.90
680;DHT22;322;48.846;9.230;2022-10-29T01:14:21;12.50;99.90
680;DHT22;322;48.846;9.230;2022-10-29T01:16:57;12.50;99.90
680;DHT22;322;48.846;9.230;2022-10-29T01:19:48;12.50;99.90
680;DHT22;322;48.846;9.230;2022-10-29T01:22:24;12.40;99.90
680;DHT22;322;48.846;9.230;2022-10-29T01:25:16;12.40;99.90
680;DHT22;322;48.846;9.230;2022-10-29T01:28:02;12.40;99.90
680;DHT22;322;48.846;9.230;2022-10-29T01:33:37;12.50;99.90
680;DHT22;322;48.846;9.230;2022-10-29T01:36:13;12.50;99.90
680;DHT22;322;48.846;9.230;2022-10-29T01:38:50;12.60;99.90
680;DHT22;322;48.846;9.230;2022-10-29T01:41:22;12.60;99.90
680;DHT22;322;48.846;9.230;2022-10-29T01:43:53;12.70;99.90
680;DHT22;322;48.846;9.230;2022-10-29T01:46:24;12.70;99.90
680;DHT22;322;48.846;9.230;2022-10-29T01:48:57;12.70;99.90
680;DHT22;322;48.846;9.230;2022-10-29T01:51:29;12.60;99.90
680;DHT22;322;48.846;9.230;2022-10-29T01:53:57;12.60;99.90
680;DHT22;322;48.846;9.230;2022-10-29T01:56:24;12.60;99.90
680;DHT22;322;48.846;9.230;2022-10-29T01:58:54;12.60;99.90
680;DHT22;322;48.846;9.230;2022-10-29T02:01:35;12.50;99.90
680;DHT22;322;48.846;9.230;2022-10-29T02:04:16;12.40;99.90
680;DHT22;322;48.846;9.230;2022-10-29T02:06:50;12.50;99.90
680;DHT22;322;48.846;9.230;2022-10-29T02:09:25;12.50;99.90
680;DHT22;322;48.846;9.230;2022-10-29T02:11:57;12.50;99.90
680;DHT22;322;48.846;9.230;2022-10-29T02:14:29;12.40;99.90
680;DHT22;322;48.846;9.230;2022-10-29T02:16:58;12.40;99.90
680;DHT22;322;48.846;9.230;2022-10-29T02:19:29;12.40;99.90
680;DHT22;322;48.846;9.230;2022-10-29T02:21:56;12.40;99.90
680;DHT22;322;48.846;9.230;2022-10-29T02:24:23;12.40;99.90
680;DHT22;322;48.846;9.230;2022-10-29T02:26:50;12.40;99.90
680;DHT22;322;48.846;9.230;2022-10-29T02:29:17;12.50;99.90
680;DHT22;322;48.846;9.230;2022-10-29T02:31:43;12.60;99.90
680;DHT22;322;48.846;9.230;2022-10-29T02:34:10;12.60;99.90
680;DHT22;322;48.846;9.230;2022-10-29T02:36:38;12.60;99.90
680;DHT22;322;48.846;9.230;2022-10-29T02:39:05;12.60;99.90
680;DHT22;322;48.846;9.230;2022-10-29T02:41:32;12.60;99.90
680;DHT22;322;48.846;9.230;2022-10-29T02:43:59;12.60;99.90
680;DHT22;322;48.846;9.230;2022-10-29T02:46:25;12.70;99.90
680;DHT22;322;48.846;9.230;2022-10-29T02:48:52;12.60;99.90
680;DHT22;322;48.846;9.230;2022-10-29T02:51:19;12.70;99.90
680;DHT22;322;48.846;9.230;2022-10-29T02:53:47;12.70;99.90
680;DHT22;322;48.846;9.230;2022-10-29T02:56:14;12.70;99.90
680;DHT22;322;48.846;9.230;2022-10-29T02:58:40;12.80;99.90
680;DHT22;322;48.846;9.230;2022-10-29T03:01:07;12.70;99.90
680;DHT22;322;48.846;9.230;2022-10-29T03:03:34;12.70;99.90
680;DHT22;322;48.846;9.230;2022-10-29T03:06:01;12.70;99.90
680;DHT22;322;48.846;9.230;2022-10-29T03:08:27;12.70;99.90
680;DHT22;322;48.846;9.230;2022-10-29T03:10:55;12.70;99.90
680;DHT22;322;48.846;9.230;2022-10-29T03:13:22;12.70;99.90
680;DHT22;322;48.846;9.230;2022-10-29T03:15:49;12.60;99.90
680;DHT22;322;48.846;9.230;2022-10-29T03:18:16;12.70;99.90
680;DHT22;322;48.846;9.230;2022-10-29T03:20:42;12.70;99.90
680;DHT22;322;48.846;9.230;2022-10-29T03:23:11;12.80;99.90
680;DHT22;322;48.846;9.230;2022-10-29T03:25:38;12.80;99.90
680;DHT22;322;48.846;9.230;2022-10-29T03:28:06;12.80;99.90
680;DHT22;322;48.846;9.230;2022-10-29T03:30:33;12.70;99.90
680;DHT22;322;48.846;9.230;2022-10-29T03:33:00;12.70;99.90
680;DHT22;322;48.846;9.230;2022-10-29T03:35:27;12.70;99.90
680;DHT22;322;48.846;9.230;2022-10-29T03:37:53;12.70;99.90
680;DHT22;322;48.846;9.230;2022-10-29T03:40:20;12.70;99.90
680;DHT22;322;48.846;9.230;2022-10-29T03:42:47;12.80;99.90
680;DHT22;322;48.846;9.230;2022-10-29T03:45:15;12.70;99.90
680;DHT22;322;48.846;9.230;2022-10-29T03:47:42;12.70;99.90
680;DHT22;322;48.846;9.230;2022-10-29T03:50:09;12.70;99.90
680;DHT22;322;48.846;9.230;2022-10-29T03:52:35;12.70;99.90
680;DHT22;322;48.846;9.230;2022-10-29T03:55:03;12.80;99.90
680;DHT22;322;48.846;9.230;2022-10-29T03:57:30;12.80;99.90
680;DHT22;322;48.846;9.230;2022-10-29T03:59:57;12.70;99.90
680;DHT22;322;48.846;9.230;2022-10-29T04:02:26;12.60;99.90
680;DHT22;322;48.846;9.230;2022-10-29T04:04:53;12.70;99.90
680;DHT22;322;48.846;9.230;2022-10-29T04:07:19;12.70;99.90
680;DHT22;322;48.846;9.230;2022-10-29T04:09:46;12.70;99.90
680;DHT22;322;48.846;9.230;2022-10-29T04:12:13;12.80;99.90
680;DHT22;322;48.846;9.230;2022-10-29T04:14:40;12.80;99.90
680;DHT22;322;48.846;9.230;2022-10-29T04:17:07;12.80;99.90
680;DHT22;322;48.846;9.230;2022-10-29T04:19:35;12.80;99.90
680;DHT22;322;48.846;9.230;2022-10-29T04:22:02;12.90;99.90
680;DHT22;322;48.846;9.230;2022-10-29T04:24:28;12.80;99.90
680;DHT22;322;48.846;9.230;2022-10-29T04:26:55;12.80;99.90
680;DHT22;322;48.846;9.230;2022-10-29T04:29:22;12.80;99.90
680;DHT22;322;48.846;9.230;2022-10-29T04:31:49;12.80;99.90
680;DHT22;322;48.846;9.230;2022-10-29T04:34:16;12.80;99.90
680;DHT22;322;48.846;9.230;2022-10-29T04:36:44;12.80;99.90
680;DHT22;322;48.846;9.230;2022-10-29T04:39:11;12.80;99.90
680;DHT22;322;48.846;9.230;2022-10-29T04:41:37;12.70;99.90
680;DHT22;322;48.846;9.230;2022-10-29T04:44:04;12.70;99.90
680;DHT22;322;48.846;9.230;2022-10-29T04:46:31;12.60;99.90
680;DHT22;322;48.846;9.230;2022-10-29T04:48:58;12.60;99.90
680;DHT22;322;48.846;9.230;2022-10-29T04:51:25;12.50;99.90
680;DHT22;322;48.846;9.230;2022-10-29T04:53:54;12.40;99.90
680;DHT22;322;48.846;9.230;2022-10-29T04:56:20;12.40;99.90
680;DHT22;322;48.846;9.230;2022-10-29T04:58:49;12.40;99.90
680;DHT22;322;48.846;9.230;2022-10-29T05:01:16;12.40;99.90
680;DHT22;322;48.846;9.230;2022-10-29T05:03:43;12.30;99.90
680;DHT22;322;48.846;9.230;2022-10-29T05:06:10;12.20;99.90
680;DHT22;322;48.846;9.230;2022-10-29T05:08:36;12.10;99.90
680;DHT22;322;48.846;9.230;2022-10-29T05:11:05;12.10;99.90
680;DHT22;322;48.846;9.230;2022-10-29T05:13:32;12.00;99.90
680;DHT22;322;48.846;9.230;2022-10-29T05:15:59;12.00;99.90
680;DHT22;322;48.846;9.230;2022-10-29T05:18:26;11.90;99.90
680;DHT22;322;48.846;9.230;2022-10-29T05:20:53;11.80;99.90
680;DHT22;322;48.846;9.230;2022-10-29T05:23:20;11.80;99.90
680;DHT22;322;48.846;9.230;2022-10-29T05:25:47;11.80;99.90
680;DHT22;322;48.846;9.230;2022-10-29T05:28:19;11.80;99.90
680;DHT22;322;48.846;9.230;2022-10-29T05:30:47;11.70;99.90
680;DHT22;322;48.846;9.230;2022-10-29T05:33:15;11.70;99.90
680;DHT22;322;48.846;9.230;2022-10-29T05:35:43;11.70;99.90
680;DHT22;322;48.846;9.230;2022-10-29T05:38:10;11.70;99.90
680;DHT22;322;48.846;9.230;2022-10-29T05:40:38;11.60;99.90
680;DHT22;322;48.846;9.230;2022-10-29T05:43:07;11.60;99.90
680;DHT22;322;48.846;9.230;2022-10-29T05:45:35;11.50;99.90
680;DHT22;322;48.846;9.230;2022-10-29T05:48:02;11.50;99.90
680;DHT22;322;48.846;9.230;2022-10-29T05:50:30;11.50;99.90
680;DHT22;322;48.846;9.230;2022-10-29T05:52:58;11.40;99.90
680;DHT22;322;48.846;9.230;2022-10-29T05:55:26;11.40;99.90
680;DHT22;322;48.846;9.230;2022-10-29T05:57:54;11.30;99.90
680;DHT22;322;48.846;9.230;2022-10-29T06:00:21;11.30;99.90
680;DHT22;322;48.846;9.230;2022-10-29T06:02:49;11.30;99.90
680;DHT22;322;48.846;9.230;2022-10-29T06:05:16;11.40;99.90
680;DHT22;322;48.846;9.230;2022-10-29T06:07:43;11.40;99.90
680;DHT22;322;48.846;9.230;2022-10-29T06:10:10;11.30;99.90
680;DHT22;322;48.846;9.230;2022-10-29T06:12:37;11.30;99.90
680;DHT22;322;48.846;9.230;2022-10-29T06:15:04;11.30;99.90
680;DHT22;322;48.846;9.230;2022-10-29T06:17:31;11.20;99.90
680;DHT22;322;48.846;9.230;2022-10-29T06:19:59;11.20;99.90
680;DHT22;322;48.846;9.230;2022-10-29T06:22:26;11.30;99.90
680;DHT22;322;48.846;9.230;2022-10-29T06:24:53;11.20;99.90
680;DHT22;322;48.846;9.230;2022-10-29T06:27:19;11.30;99.90
680;DHT22;322;48.846;9.230;2022-10-29T06:29:46;11.30;99.90
680;DHT22;322;48.846;9.230;2022-10-29T06:32:13;11.30;99.90
680;DHT22;322;48.846;9.230;2022-10-29T06:34:39;11.40;99.90
680;DHT22;322;48.846;9.230;2022-10-29T06:37:07;11.40;99.90
680;DHT22;322;48.846;9.230;2022-10-29T06:39:34;11.40;99.90
680;DHT22;322;48.846;9.230;2022-10-29T06:42:01;11.50;99.90
680;DHT22;322;48.846;9.230;2022-10-29T06:44:28;11.50;99.90
680;DHT22;322;48.846;9.230;2022-10-29T06:46:55;11.50;99.90
680;DHT22;322;48.846;9.230;2022-10-29T06:49:21;11.50;99.90
680;DHT22;322;48.846;9.230;2022-10-29T06:51:48;11.60;99.90
680;DHT22;322;48.846;9.230;2022-10-29T06:54:16;11.60;99.90
680;DHT22;322;48.846;9.230;2022-10-29T06:56:43;11.60;99.90
680;DHT22;322;48.846;9.230;2022-10-29T06:59:10;11.60;99.90
680;DHT22;322;48.846;9.230;2022-10-29T07:01:37;11.60;99.90
680;DHT22;322;48.846;9.230;2022-10-29T07:04:04;11.70;99.90
680;DHT22;322;48.846;9.230;2022-10-29T07:06:31;11.70;99.90
680;DHT22;322;48.846;9.230;2022-10-29T07:08:58;11.80;99.90
680;DHT22;322;48.846;9.230;2022-10-29T07:11:26;11.90;99.90
680;DHT22;322;48.846;9.230;2022-10-29T07:13:53;11.80;99.90
680;DHT22;322;48.846;9.230;2022-10-29T07:16:20;11.90;99.90
680;DHT22;322;48.846;9.230;2022-10-29T07:18:47;12.00;99.90
680;DHT22;322;48.846;9.230;2022-10-29T07:21:13;12.10;99.90
680;DHT22;322;48.846;9.230;2022-10-29T07:23:40;12.20;99.90
680;DHT22;322;48.846;9.230;2022-10-29T07:26:07;12.20;99.90
680;DHT22;322;48.846;9.230;2022-10-29T07:28:35;12.30;99.90
680;DHT22;322;48.846;9.230;2022-10-29T07:31:02;12.40;99.90
680;DHT22;322;48.846;9.230;2022-10-29T07:33:29;12.50;99.90
680;DHT22;322;48.846;9.230;2022-10-29T07:35:57;12.60;99.90
680;DHT22;322;48.846;9.230;2022-10-29T07:38:24;12.70;99.90
680;DHT22;322;48.846;9.230;2022-10-29T07:40:51;12.80;99.90
680;DHT22;322;48.846;9.230;2022-10-29T07:43:19;12.90;99.90
680;DHT22;322;48.846;9.230;2022-10-29T07:45:48;12.90;99.90
680;DHT22;322;48.846;9.230;2022-10-29T07:48:16;13.00;99.90
680;DHT22;322;48.846;9.230;2022-10-29T07:50:43;13.10;99.90
680;DHT22;322;48.846;9.230;2022-10-29T07:53:10;13.30;99.90
680;DHT22;322;48.846;9.230;2022-10-29T07:55:37;13.40;99.90
680;DHT22;322;48.846;9.230;2022-10-29T07:58:05;13.60;99.90
680;DHT22;322;48.846;9.230;2022-10-29T08:00:33;13.80;99.90
680;DHT22;322;48.846;9.230;2022-10-29T08:03:02;14.00;99.90
680;DHT22;322;48.846;9.230;2022-10-29T08:05:30;14.10;99.90
680;DHT22;322;48.846;9.230;2022-10-29T08:07:57;14.20;99.90
680;DHT22;322;48.846;9.230;2022-10-29T08:10:24;14.30;99.90
680;DHT22;322;48.846;9.230;2022-10-29T08:12:52;14.40;99.90
680;DHT22;322;48.846;9.230;2022-10-29T08:15:20;14.50;99.90
680;DHT22;322;48.846;9.230;2022-10-29T08:17:47;14.50;99.90
680;DHT22;322;48.846;9.230;2022-10-29T08:20:16;14.60;99.90
680;DHT22;322;48.846;9.230;2022-10-29T08:22:43;14.70;99.90
680;DHT22;322;48.846;9.230;2022-10-29T08:25:10;14.80;99.90
680;DHT22;322;48.846;9.230;2022-10-29T08:27:38;15.00;99.90
680;DHT22;322;48.846;9.230;2022-10-29T08:30:06;15.20;99.90
680;DHT22;322;48.846;9.230;2022-10-29T08:32:33;15.40;99.90
680;DHT22;322;48.846;9.230;2022-10-29T08:35:00;15.70;99.90
680;DHT22;322;48.846;9.230;2022-10-29T08:37:28;16.00;99.90
680;DHT22;322;48.846;9.230;2022-10-29T08:39:54;16.30;99.90
680;DHT22;322;48.846;9.230;2022-10-29T08:42:34;16.40;99.90
680;DHT22;322;48.846;9.230;2022-10-29T08:45:22;16.70;99.90
680;DHT22;322;48.846;9.230;2022-10-29T08:48:15;16.90;99.90
680;DHT22;322;48.846;9.230;2022-10-29T08:50:48;17.10;99.90
680;DHT22;322;48.846;9.230;2022-10-29T08:53:20;17.30;99.90
680;DHT22;322;48.846;9.230;2022-10-29T08:55:48;17.40;99.90
680;DHT22;322;48.846;9.230;2022-10-29T08:58:21;17.60;99.90
680;DHT22;322;48.846;9.230;2022-10-29T09:00:53;17.70;99.90
680;DHT22;322;48.846;9.230;2022-10-29T09:03:21;17.80;99.90
680;DHT22;322;48.846;9.230;2022-10-29T09:05:59;17.90;99.90
680;DHT22;322;48.846;9.230;2022-10-29T09:08:38;17.70;99.90
680;DHT22;322;48.846;9.230;2022-10-29T09:11:19;17.40;99.90
680;DHT22;322;48.846;9.230;2022-10-29T09:13:53;17.50;99.90
680;DHT22;322;48.846;9.230;2022-10-29T09:16:36;17.60;99.90
680;DHT22;322;48.846;9.230;2022-10-29T09:19:26;17.70;99.90
680;DHT22;322;48.846;9.230;2022-10-29T09:22:03;18.00;99.90
680;DHT22;322;48.846;9.230;2022-10-29T09:24:39;18.20;99.90
680;DHT22;322;48.846;9.230;2022-10-29T09:27:13;18.40;99.90
680;DHT22;322;48.846;9.230;2022-10-29T09:29:50;18.70;99.90
680;DHT22;322;48.846;9.230;2022-10-29T09:32:22;18.80;99.90
680;DHT22;322;48.846;9.230;2022-10-29T09:34:53;18.90;99.90
680;DHT22;322;48.846;9.230;2022-10-29T09:37:26;19.20;99.90
680;DHT22;322;48.846;9.230;2022-10-29T09:39:57;19.50;99.90
680;DHT22;322;48.846;9.230;2022-10-29T09:42:31;19.90;99.90
680;DHT22;322;48.846;9.230;2022-10-29T09:45:02;20.40;99.90
680;DHT22;322;48.846;9.230;2022-10-29T09:47:38;21.00;99.90
680;DHT22;322;48.846;9.230;2022-10-29T09:50:15;21.40;99.90
680;DHT22;322;48.846;9.230;2022-10-29T09:52:47;22.00;99.90
680;DHT22;322;48.846;9.230;2022-10-29T09:55:22;22.60;99.90
680;DHT22;322;48.846;9.230;2022-10-29T09:57:50;23.30;99.90
680;DHT22;322;48.846;9.230;2022-10-29T10:00:20;23.80;99.90
680;DHT22;322;48.846;9.230;2022-10-29T10:02:51;24.30;99.90
680;DHT22;322;48.846;9.230;2022-10-29T10:05:24;24.60;99.90
680;DHT22;322;48.846;9.230;2022-10-29T10:08:07;24.80;99.90
680;DHT22;322;48.846;9.230;2022-10-29T10:10:47;25.10;99.90
680;DHT22;322;48.846;9.230;2022-10-29T10:13:15;25.50;99.90
680;DHT22;322;48.846;9.230;2022-10-29T10:15:49;25.50;99.90
680;DHT22;322;48.846;9.230;2022-10-29T10:18:17;25.70;99.90
680;DHT22;322;48.846;9.230;2022-10-29T10:20:47;25.90;99.90
680;DHT22;322;48.846;9.230;2022-10-29T10:23:22;26.40;99.90
680;DHT22;322;48.846;9.230;2022-10-29T10:25:51;26.90;99.90
680;DHT22;322;48.846;9.230;2022-10-29T10:28:20;27.30;99.90
680;DHT22;322;48.846;9.230;2022-10-29T10:31:05;27.60;99.50
680;DHT22;322;48.846;9.230;2022-10-29T10:33:34;27.80;97.10
680;DHT22;322;48.846;9.230;2022-10-29T10:36:03;28.00;97.50
680;DHT22;322;48.846;9.230;2022-10-29T10:38:37;28.30;96.30
680;DHT22;322;48.846;9.230;2022-10-29T10:41:07;28.60;97.00
680;DHT22;322;48.846;9.230;2022-10-29T10:43:34;28.80;94.90
680;DHT22;322;48.846;9.230;2022-10-29T10:46:05;28.90;95.00
680;DHT22;322;48.846;9.230;2022-10-29T10:48:36;29.20;94.60
680;DHT22;322;48.846;9.230;2022-10-29T10:51:15;29.10;94.90
680;DHT22;322;48.846;9.230;2022-10-29T10:53:43;29.10;95.00
680;DHT22;322;48.846;9.230;2022-10-29T10:56:20;29.30;95.10
680;DHT22;322;48.846;9.230;2022-10-29T10:58:58;29.70;94.10
680;DHT22;322;48.846;9.230;2022-10-29T11:01:30;29.90;93.50
680;DHT22;322;48.846;9.230;2022-10-29T11:04:04;30.20;93.70
680;DHT22;322;48.846;9.230;2022-10-29T11:06:37;30.20;93.50
680;DHT22;322;48.846;9.230;2022-10-29T11:09:11;30.30;93.40
680;DHT22;322;48.846;9.230;2022-10-29T11:11:44;30.10;93.10
680;DHT22;322;48.846;9.230;2022-10-29T11:14:17;29.70;93.50
680;DHT22;322;48.846;9.230;2022-10-29T11:16:50;29.30;93.60
680;DHT22;322;48.846;9.230;2022-10-29T11:19:23;29.30;93.70
680;DHT22;322;48.846;9.230;2022-10-29T11:22:05;29.50;93.60
680;DHT22;322;48.846;9.230;2022-10-29T11:24:43;29.90;93.20
680;DHT22;322;48.846;9.230;2022-10-29T11:27:22;30.20;91.90
680;DHT22;322;48.846;9.230;2022-10-29T11:29:56;30.30;92.00
680;DHT22;322;48.846;9.230;2022-10-29T11:32:32;29.80;92.60
680;DHT22;322;48.846;9.230;2022-10-29T11:35:03;29.10;93.10
680;DHT22;322;48.846;9.230;2022-10-29T11:37:36;28.40;93.80
680;DHT22;322;48.846;9.230;2022-10-29T11:40:11;27.70;95.00
680;DHT22;322;48.846;9.230;2022-10-29T11:42:40;27.20;95.60
680;DHT22;322;48.846;9.230;2022-10-29T11:45:13;26.60;96.60
680;DHT22;322;48.846;9.230;2022-10-29T11:48:08;26.30;98.10
680;DHT22;322;48.846;9.230;2022-10-29T11:50:41;25.90;98.10
680;DHT22;322;48.846;9.230;2022-10-29T11:53:20;25.80;99.00
680;DHT22;322;48.846;9.230;2022-10-29T11:55:55;25.60;99.20
680;DHT22;322;48.846;9.230;2022-10-29T11:58:32;25.40;99.30
680;DHT22;322;48.846;9.230;2022-10-29T12:01:04;25.30;99.90
680;DHT22;322;48.846;9.230;2022-10-29T12:03:45;25.20;99.90
680;DHT22;322;48.846;9.230;2022-10-29T12:06:19;25.20;99.60
680;DHT22;322;48.846;9.230;2022-10-29T12:08:59;25.20;99.90
680;DHT22;322;48.846;9.230;2022-10-29T12:11:34;25.30;99.90
680;DHT22;322;48.846;9.230;2022-10-29T12:14:14;25.40;99.90
680;DHT22;322;48.846;9.230;2022-10-29T12:16:51;25.50;99.90
680;DHT22;322;48.846;9.230;2022-10-29T12:19:32;25.40;99.90
680;DHT22;322;48.846;9.230;2022-10-29T12:22:10;25.40;99.90
680;DHT22;322;48.846;9.230;2022-10-29T12:24:50;25.50;99.90
680;DHT22;322;48.846;9.230;2022-10-29T12:27:24;25.60;99.90
680;DHT22;322;48.846;9.230;2022-10-29T12:29:58;25.80;99.90
680;DHT22;322;48.846;9.230;2022-10-29T12:32:30;25.70;99.90
680;DHT22;322;48.846;9.230;2022-10-29T12:35:04;25.70;99.90
680;DHT22;322;48.846;9.230;2022-10-29T12:37:39;25.70;99.90
680;DHT22;322;48.846;9.230;2022-10-29T12:40:15;25.70;99.90
680;DHT22;322;48.846;9.230;2022-10-29T12:42:44;25.60;99.90
680;DHT22;322;48.846;9.230;2022-10-29T12:45:24;25.70;99.90
680;DHT22;322;48.846;9.230;2022-10-29T12:48:02;25.70;99.90
680;DHT22;322;48.846;9.230;2022-10-29T12:50:39;25.50;99.90
680;DHT22;322;48.846;9.230;2022-10-29T12:53:14;25.50;99.90
680;DHT22;322;48.846;9.230;2022-10-29T12:55:43;25.40;99.90
680;DHT22;322;48.846;9.230;2022-10-29T12:58:47;25.30;99.90
680;DHT22;322;48.846;9.230;2022-10-29T13:01:44;25.20;99.90
680;DHT22;322;48.846;9.230;2022-10-29T13:04:26;25.20;99.90
680;DHT22;322;48.846;9.230;2022-10-29T13:07:04;25.20;99.90
680;DHT22;322;48.846;9.230;2022-10-29T13:09:32;25.10;99.90
680;DHT22;322;48.846;9.230;2022-10-29T13:12:02;25.00;99.90
680;DHT22;322;48.846;9.230;2022-10-29T13:14:37;24.90;99.90
680;DHT22;322;48.846;9.230;2022-10-29T13:17:23;24.90;99.90
680;DHT22;322;48.846;9.230;2022-10-29T13:19:53;24.80;99.90
680;DHT22;322;48.846;9.230;2022-10-29T13:22:33;24.70;99.90
680;DHT22;322;48.846;9.230;2022-10-29T13:25:41;24.70;99.90
680;DHT22;322;48.846;9.230;2022-10-29T13:28:49;24.60;99.90
680;DHT22;322;48.846;9.230;2022-10-29T13:31:43;24.60;99.90
680;DHT22;322;48.846;9.230;2022-10-29T13:37:50;24.50;99.90
680;DHT22;322;48.846;9.230;2022-10-29T13:43:18;24.50;99.90
680;DHT22;322;48.846;9.230;2022-10-29T13:45:49;24.50;99.90
680;DHT22;322;48.846;9.230;2022-10-29T13:48:23;24.60;99.90
680;DHT22;322;48.846;9.230;2022-10-29T13:50:54;24.70;99.90
680;DHT22;322;48.846;9.230;2022-10-29T13:53:27;24.70;99.90
680;DHT22;322;48.846;9.230;2022-10-29T13:55:56;24.70;99.90
680;DHT22;322;48.846;9.230;2022-10-29T13:58:27;24.60;99.90
680;DHT22;322;48.846;9.230;2022-10-29T14:00:56;24.60;99.90
680;DHT22;322;48.846;9.230;2022-10-29T14:03:29;24.60;99.90
680;DHT22;322;48.846;9.230;2022-10-29T14:06:01;24.70;99.90
680;DHT22;322;48.846;9.230;2022-10-29T14:08:35;24.80;99.90
680;DHT22;322;48.846;9.230;2022-10-29T14:11:11;24.90;99.90
680;DHT22;322;48.846;9.230;2022-10-29T14:13:42;24.90;99.90
680;DHT22;322;48.846;9.230;2022-10-29T14:16:11;25.00;99.90
680;DHT22;322;48.846;9.230;2022-10-29T14:18:40;25.10;99.90
680;DHT22;322;48.846;9.230;2022-10-29T14:21:15;25.20;99.90
680;DHT22;322;48.846;9.230;2022-10-29T14:23:55;25.30;99.90
680;DHT22;322;48.846;9.230;2022-10-29T14:26:22;25.30;99.90
680;DHT22;322;48.846;9.230;2022-10-29T14:28:50;25.20;99.90
680;DHT22;322;48.846;9.230;2022-10-29T14:31:20;25.00;99.90
680;DHT22;322;48.846;9.230;2022-10-29T14:33:53;24.90;99.90
680;DHT22;322;48.846;9.230;2022-10-29T14:36:26;24.80;99.90
680;DHT22;322;48.846;9.230;2022-10-29T14:38:58;24.60;99.90
680;DHT22;322;48.846;9.230;2022-10-29T14:41:28;24.40;99.90
680;DHT22;322;48.846;9.230;2022-10-29T14:44:14;24.20;99.90
680;DHT22;322;48.846;9.230;2022-10-29T14:46:42;24.10;99.90
680;DHT22;322;48.846;9.230;2022-10-29T14:49:14;23.90;99.90
680;DHT22;322;48.846;9.230;2022-10-29T14:51:50;23.80;99.90
680;DHT22;322;48.846;9.230;2022-10-29T14:54:20;23.70;99.90
680;DHT22;322;48.846;9.230;2022-10-29T14:56:50;23.50;99.90
680;DHT22;322;48.846;9.230;2022-10-29T14:59:21;23.40;99.90
680;DHT22;322;48.846;9.230;2022-10-29T15:01:50;23.10;99.90
680;DHT22;322;48.846;9.230;2022-10-29T15:04:20;23.00;99.90
680;DHT22;322;48.846;9.230;2022-10-29T15:06:49;22.80;99.90
680;DHT22;322;48.846;9.230;2022-10-29T15:09:16;22.70;99.90
680;DHT22;322;48.846;9.230;2022-10-29T15:12:05;22.60;99.90
680;DHT22;322;48.846;9.230;2022-10-29T15:14:35;22.40;99.90
680;DHT22;322;48.846;9.230;2022-10-29T15:17:09;22.30;99.90
680;DHT22;322;48.846;9.230;2022-10-29T15:19:41;22.10;99.90
680;DHT22;322;48.846;9.230;2022-10-29T15:22:10;21.90;99.90
680;DHT22;322;48.846;9.230;2022-10-29T15:24:37;21.90;99.90
680;DHT22;322;48.846;9.230;2022-10-29T15:27:04;21.70;99.90
680;DHT22;322;48.846;9.230;2022-10-29T15:29:36;21.60;99.90
680;DHT22;322;48.846;9.230;2022-10-29T15:32:09;21.40;99.90
680;DHT22;322;48.846;9.230;2022-10-29T15:34:39;21.30;99.90
680;DHT22;322;48.846;9.230;2022-10-29T15:37:23;21.20;99.90
680;DHT22;322;48.846;9.230;2022-10-29T15:40:09;21.00;99.90
680;DHT22;322;48.846;9.230;2022-10-29T15:42:37;20.90;99.90
680;DHT22;322;48.846;9.230;2022-10-29T15:45:22;20.80;99.90
680;DHT22;322;48.846;9.230;2022-10-29T15:47:52;20.60;99.90
680;DHT22;322;48.846;9.230;2022-10-29T15:50:22;20.40;99.90
680;DHT22;322;48.846;9.230;2022-10-29T15:52:56;20.30;99.90
680;DHT22;322;48.846;9.230;2022-10-29T15:55:28;20.30;99.90
680;DHT22;322;48.846;9.230;2022-10-29T15:58:00;20.20;99.90
680;DHT22;322;48.846;9.230;2022-10-29T16:00:29;20.10;99.90
680;DHT22;322;48.846;9.230;2022-10-29T16:03:00;19.90;99.90
680;DHT22;322;48.846;9.230;2022-10-29T16:05:28;19.80;99.90
680;DHT22;322;48.846;9.230;2022-10-29T16:07:57;19.70;99.90
680;DHT22;322;48.846;9.230;2022-10-29T16:10:26;19.60;99.90
680;DHT22;322;48.846;9.230;2022-10-29T16:12:53;19.50;99.90
680;DHT22;322;48.846;9.230;2022-10-29T16:15:20;19.40;99.90
680;DHT22;322;48.846;9.230;2022-10-29T16:17:46;19.30;99.90
680;DHT22;322;48.846;9.230;2022-10-29T16:20:15;19.10;99.90
680;DHT22;322;48.846;9.230;2022-10-29T16:22:42;19.00;99.90
680;DHT22;322;48.846;9.230;2022-10-29T16:25:20;18.90;99.90
680;DHT22;322;48.846;9.230;2022-10-29T16:27:47;18.80;99.90
680;DHT22;322;48.846;9.230;2022-10-29T16:30:14;18.60;99.90
680;DHT22;322;48.846;9.230;2022-10-29T16:32:42;18.50;99.90
680;DHT22;322;48.846;9.230;2022-10-29T16:35:14;18.40;99.90
680;DHT22;322;48.846;9.230;2022-10-29T16:37:41;18.30;99.90
680;DHT22;322;48.846;9.230;2022-10-29T16:40:09;18.30;99.90
680;DHT22;322;48.846;9.230;2022-10-29T16:42:38;18.10;99.90
680;DHT22;322;48.846;9.230;2022-10-29T16:45:07;18.10;99.90
680;DHT22;322;48.846;9.230;2022-10-29T16:47:36;18.00;99.90
680;DHT22;322;48.846;9.230;2022-10-29T16:50:03;18.00;99.90
680;DHT22;322;48.846;9.230;2022-10-29T16:52:30;17.90;99.90
680;DHT22;322;48.846;9.230;2022-10-29T16:54:57;17.90;99.90
680;DHT22;322;48.846;9.230;2022-10-29T16:57:24;17.80;99.90
680;DHT22;322;48.846;9.230;2022-10-29T16:59:52;17.70;99.90
680;DHT22;322;48.846;9.230;2022-10-29T17:02:19;17.60;99.90
680;DHT22;322;48.846;9.230;2022-10-29T17:04:45;17.60;99.90
680;DHT22;322;48.846;9.230;2022-10-29T17:07:12;17.60;99.90
680;DHT22;322;48.846;9.230;2022-10-29T17:09:39;17.60;99.90